Autryville, North Carolina
Current Conditions -  °F | °C
As of 2:53 PM on Friday 26 Dec 2014 (Local Time) from KFAY Reporting Station
Clear Clear  
Wind Chill: 15°   Ceiling: Unl
Heat Index: 15°   Visibility: 10mi
Dew Point:   Wind: 3mph
Humidity: 36%   Direction: 300°WNW
Pressure: 30.27"   Gusts: NA
Location:  35°N, 78.64°W
Report Text: KFAY 261953Z AUTO 30003KT 10SM CLR 15/00 A3027 RMK AO2 SLP247 T01500000
Loading
Personal Weather Stations






























Interactive Weather Map New forecast layout! Learn more

10-Day Weather Forecast

Advertisements
Track Severe Weather on mobile